Time;durP1;ratioP1;P1;durP2;ratioP2;P2;SDS_P1;SDS_P2;PMS_P1;PMS_P2;Temp;Humidity;BMP_temperature;BMP_pressure;BME280_temperature;BME280_humidity;BME280_pressure;Samples;Min_cycle;Max_cycle;Signal;HPM_P1;HPM_P2
2022/06/05 00:02:23;;;;;;;7.30;2.65;;;;;;;;;;5021585;28;20061;-69
2022/06/05 00:04:52;;;;;;;5.80;2.17;;;;;;;;;;5027873;28;20068;-70
2022/06/05 00:07:22;;;;;;;5.55;2.60;;;;;;;;;;5022407;28;20045;-66
2022/06/05 00:09:51;;;;;;;6.07;2.80;;;;;;;;;;5044204;28;20050;-70
2022/06/05 00:12:19;;;;;;;6.10;2.40;;;;;;;;;;5014719;28;20049;-69
2022/06/05 00:14:46;;;;;;;5.78;2.40;;;;;;;;;;5027786;28;20067;-64
2022/06/05 00:17:16;;;;;;;6.20;2.40;;;;;;;;;;5023344;28;20049;-64
2022/06/05 00:19:47;;;;;;;6.95;2.70;;;;;;;;;;5008569;28;20108;-65
2022/06/05 00:22:14;;;;;;;4.28;2.30;;;;;;;;;;5007992;28;20085;-71
2022/06/05 00:24:41;;;;;;;7.28;2.25;;;;;;;;;;5021265;28;20067;-72
2022/06/05 00:27:18;;;;;;;5.82;2.40;;;;;;;;;;5027220;28;20053;-71
2022/06/05 00:29:51;;;;;;;8.52;2.72;;;;;;;;;;5018413;28;20073;-69
2022/06/05 00:32:26;;;;;;;8.25;2.80;;;;;;;;;;5024207;28;20050;-71
2022/06/05 00:34:52;;;;;;;5.90;2.53;;;;;;;;;;5033500;28;20263;-70
2022/06/05 00:37:27;;;;;;;6.22;2.63;;;;;;;;;;5007591;28;20062;-67
2022/06/05 00:39:57;;;;;;;7.50;2.42;;;;;;;;;;5002803;28;20137;-71
2022/06/05 00:42:25;;;;;;;4.50;2.40;;;;;;;;;;5007476;28;20136;-69
2022/06/05 00:44:52;;;;;;;;;;;;;;;;;;5016242;28;20148;-69
2022/06/05 00:47:21;;;;;;;5.85;2.28;;;;;;;;;;5027492;28;19983;-70
2022/06/05 00:49:51;;;;;;;8.63;3.28;;;;;;;;;;5021890;28;20049;-70
2022/06/05 00:52:18;;;;;;;4.70;2.35;;;;;;;;;;5027278;28;20099;-68
2022/06/05 00:54:46;;;;;;;8.60;2.57;;;;;;;;;;5018147;28;20112;-68
2022/06/05 00:57:13;;;;;;;6.05;2.33;;;;;;;;;;5007429;28;20053;-72
2022/06/05 00:59:41;;;;;;;4.85;2.25;;;;;;;;;;5025884;28;20046;-71
2022/06/05 01:02:09;;;;;;;7.25;2.63;;;;;;;;;;5025965;28;20064;-71
2022/06/05 01:04:38;;;;;;;5.95;2.40;;;;;;;;;;5021394;28;20049;-69
2022/06/05 01:07:05;;;;;;;7.22;2.30;;;;;;;;;;5026941;28;20083;-71
2022/06/05 01:09:32;;;;;;;8.55;2.78;;;;;;;;;;5019487;28;20140;-69
2022/06/05 01:12:04;;;;;;;8.80;2.90;;;;;;;;;;5006749;28;20049;-71
2022/06/05 01:14:35;;;;;;;7.97;2.78;;;;;;;;;;5003552;28;20061;-72
2022/06/05 01:17:06;;;;;;;6.25;2.60;;;;;;;;;;5026546;28;20057;-72
2022/06/05 01:19:40;;;;;;;5.78;3.00;;;;;;;;;;5024190;28;20089;-72
2022/06/05 01:22:21;;;;;;;6.00;2.75;;;;;;;;;;5007704;28;20112;-70
2022/06/05 01:25:02;;;;;;;7.10;2.90;;;;;;;;;;4983659;28;20054;-69
2022/06/05 01:27:31;;;;;;;4.85;2.40;;;;;;;;;;5026697;28;20057;-71
2022/06/05 01:30:01;;;;;;;6.43;3.03;;;;;;;;;;5024452;28;20136;-70
2022/06/05 01:32:30;;;;;;;7.38;2.65;;;;;;;;;;5026118;28;20067;-70
2022/06/05 01:35:00;;;;;;;4.95;2.60;;;;;;;;;;5027187;28;20053;-73
2022/06/05 01:37:29;;;;;;;6.53;2.53;;;;;;;;;;5018115;28;20050;-71
2022/06/05 01:39:58;;;;;;;4.97;2.45;;;;;;;;;;5023765;28;20054;-71
2022/06/05 01:42:29;;;;;;;5.40;2.65;;;;;;;;;;5018416;28;20049;-71
2022/06/05 01:44:59;;;;;;;6.68;3.30;;;;;;;;;;5027564;28;20112;-71
2022/06/05 01:47:28;;;;;;;6.57;2.35;;;;;;;;;;5021472;28;20060;-71
2022/06/05 01:49:56;;;;;;;6.22;3.10;;;;;;;;;;5026670;28;20054;-71
2022/06/05 01:52:25;;;;;;;7.75;3.35;;;;;;;;;;5021387;28;20050;-71
2022/06/05 01:54:55;;;;;;;5.13;2.10;;;;;;;;;;5027044;28;20045;-71
2022/06/05 01:57:23;;;;;;;8.43;3.40;;;;;;;;;;5019648;28;20056;-69
2022/06/05 01:59:52;;;;;;;8.68;3.05;;;;;;;;;;5026307;28;20149;-71
2022/06/05 02:02:22;;;;;;;7.47;2.97;;;;;;;;;;5019871;28;20053;-67
2022/06/05 02:04:51;;;;;;;4.72;2.28;;;;;;;;;;5022877;28;20063;-71
2022/06/05 02:07:21;;;;;;;7.03;2.58;;;;;;;;;;5032624;28;20067;-70
2022/06/05 02:09:51;;;;;;;8.82;3.45;;;;;;;;;;5023828;28;20049;-68
2022/06/05 02:12:19;;;;;;;6.20;2.92;;;;;;;;;;5022177;28;20104;-67
2022/06/05 02:14:45;;;;;;;6.55;2.83;;;;;;;;;;5025906;28;20164;-68
2022/06/05 02:17:12;;;;;;;7.25;2.63;;;;;;;;;;5026671;28;20049;-67
2022/06/05 02:19:40;;;;;;;5.90;2.50;;;;;;;;;;5020765;28;20041;-66
2022/06/05 02:22:10;;;;;;;5.38;2.70;;;;;;;;;;5027526;28;20087;-69
2022/06/05 02:24:37;;;;;;;7.03;2.85;;;;;;;;;;5023496;28;20049;-69
2022/06/05 02:27:05;;;;;;;5.38;2.70;;;;;;;;;;5029345;28;20053;-70
2022/06/05 02:29:32;;;;;;;;;;;;;;;;;;5024078;28;20064;-69
2022/06/05 02:32:08;;;;;;;5.88;2.38;;;;;;;;;;5029964;28;19944;-67
2022/06/05 02:34:40;;;;;;;9.30;3.40;;;;;;;;;;5027346;28;20145;-68
2022/06/05 02:37:13;;;;;;;8.63;3.00;;;;;;;;;;5027148;28;20068;-70
2022/06/05 02:39:43;;;;;;;6.70;3.15;;;;;;;;;;5029465;28;20113;-68
2022/06/05 02:42:13;;;;;;;7.38;3.17;;;;;;;;;;5024072;28;20053;-70
2022/06/05 02:44:42;;;;;;;6.65;2.67;;;;;;;;;;5030205;28;20057;-70
2022/06/05 02:47:20;;;;;;;8.30;3.08;;;;;;;;;;5024225;28;20060;-70
2022/06/05 02:49:51;;;;;;;6.20;2.92;;;;;;;;;;5030037;28;20143;-70
2022/06/05 02:52:20;;;;;;;8.02;2.85;;;;;;;;;;5023835;28;20161;-67
2022/06/05 02:54:49;;;;;;;6.18;2.80;;;;;;;;;;5029140;28;20116;-68
2022/06/05 02:57:15;;;;;;;7.32;3.25;;;;;;;;;;5024793;28;20064;-66
2022/06/05 02:59:42;;;;;;;7.97;2.88;;;;;;;;;;5028258;28;20057;-69
2022/06/05 03:04:52;;;;;;;8.85;3.25;;;;;;;;;;5007975;28;20057;-69
2022/06/05 03:07:21;;;;;;;9.00;3.90;;;;;;;;;;5014444;28;20082;-71
2022/06/05 03:09:47;;;;;;;8.93;3.30;;;;;;;;;;5020437;28;20060;-69
2022/06/05 03:12:14;;;;;;;6.07;2.75;;;;;;;;;;5049461;28;20063;-66
2022/06/05 03:14:42;;;;;;;7.55;3.13;;;;;;;;;;5030036;28;20153;-67
2022/06/05 03:17:08;;;;;;;6.03;2.87;;;;;;;;;;5028973;28;20068;-67
2022/06/05 03:19:35;;;;;;;8.57;2.58;;;;;;;;;;5025131;28;20046;-67
2022/06/05 03:22:01;;;;;;;9.07;3.13;;;;;;;;;;5027845;28;20053;-71
2022/06/05 03:24:30;;;;;;;5.35;2.55;;;;;;;;;;5028998;28;20057;-69
2022/06/05 03:26:56;;;;;;;8.73;3.47;;;;;;;;;;5023060;28;20046;-68
2022/06/05 03:29:23;;;;;;;8.10;3.17;;;;;;;;;;5028956;28;20049;-71
2022/06/05 03:31:50;;;;;;;7.55;3.03;;;;;;;;;;5022493;28;20053;-66
2022/06/05 03:34:17;;;;;;;7.93;3.58;;;;;;;;;;5028433;28;20057;-71
2022/06/05 03:36:44;;;;;;;8.43;3.45;;;;;;;;;;5023088;28;20057;-65
2022/06/05 03:39:11;;;;;;;7.75;3.45;;;;;;;;;;5028212;28;20053;-66
2022/06/05 03:41:39;;;;;;;7.40;3.13;;;;;;;;;;5027491;28;20060;-69
2022/06/05 03:44:07;;;;;;;7.95;3.25;;;;;;;;;;5019843;28;20060;-68
2022/06/05 03:46:35;;;;;;;6.95;3.20;;;;;;;;;;5028421;28;20116;-68
2022/06/05 03:49:02;;;;;;;9.43;3.60;;;;;;;;;;5021931;28;20046;-67
2022/06/05 03:51:28;;;;;;;7.25;2.92;;;;;;;;;;5024388;28;20049;-68
2022/06/05 03:53:55;;;;;;;6.28;2.78;;;;;;;;;;5026411;28;20053;-63
2022/06/05 03:56:24;;;;;;;6.88;2.85;;;;;;;;;;5028453;28;20046;-66
2022/06/05 03:58:50;;;;;;;;;;;;;;;;;;5024914;28;20046;-65
2022/06/05 04:01:19;;;;;;;4.07;2.15;;;;;;;;;;5025997;28;19948;-65
2022/06/05 04:03:47;;;;;;;7.97;3.80;;;;;;;;;;5021667;28;20120;-68
2022/06/05 04:06:15;;;;;;;9.17;3.53;;;;;;;;;;5015692;28;20132;-65
2022/06/05 04:08:42;;;;;;;6.65;3.03;;;;;;;;;;5028001;28;20096;-67
2022/06/05 04:11:11;;;;;;;4.95;2.60;;;;;;;;;;5027462;28;20053;-66
2022/06/05 04:13:39;;;;;;;8.15;2.75;;;;;;;;;;5027889;28;20053;-66
2022/06/05 04:16:09;;;;;;;7.55;2.60;;;;;;;;;;5021324;28;20152;-64
2022/06/05 04:18:37;;;;;;;8.25;4.00;;;;;;;;;;5027634;28;20049;-66
2022/06/05 04:21:06;;;;;;;7.35;3.45;;;;;;;;;;5022180;28;20072;-64
2022/06/05 04:23:33;;;;;;;6.07;2.85;;;;;;;;;;5027473;28;20061;-68
2022/06/05 04:26:00;;;;;;;6.32;2.70;;;;;;;;;;5027824;28;20060;-66
2022/06/05 04:28:26;;;;;;;7.55;3.03;;;;;;;;;;5021581;28;20057;-65
2022/06/05 04:30:53;;;;;;;4.68;2.60;;;;;;;;;;5027198;28;20054;-67
2022/06/05 04:33:20;;;;;;;10.43;4.15;;;;;;;;;;5021334;28;20136;-68
2022/06/05 04:35:48;;;;;;;9.82;4.18;;;;;;;;;;5027924;28;20132;-68
2022/06/05 04:38:15;;;;;;;9.55;3.65;;;;;;;;;;5022152;28;20061;-64
2022/06/05 04:40:42;;;;;;;9.30;4.05;;;;;;;;;;5027556;28;20117;-67
2022/06/05 04:43:12;;;;;;;8.23;3.45;;;;;;;;;;5025445;28;20061;-68
2022/06/05 04:45:39;;;;;;;11.35;3.60;;;;;;;;;;5024606;28;20046;-72
2022/06/05 04:48:06;;;;;;;6.85;3.38;;;;;;;;;;5029571;28;20045;-71
2022/06/05 04:50:32;;;;;;;7.05;2.88;;;;;;;;;;5022043;28;20053;-67
2022/06/05 04:53:01;;;;;;;4.68;2.45;;;;;;;;;;5027044;28;20064;-65
2022/06/05 04:55:28;;;;;;;7.07;2.75;;;;;;;;;;5020880;28;20057;-68
2022/06/05 04:57:54;;;;;;;8.13;3.20;;;;;;;;;;5027637;28;20136;-65
2022/06/05 05:00:21;;;;;;;8.90;3.75;;;;;;;;;;5022169;28;20046;-66
2022/06/05 05:02:48;;;;;;;11.10;3.85;;;;;;;;;;5043235;28;20050;-64
2022/06/05 05:05:15;;;;;;;7.75;3.58;;;;;;;;;;5026292;28;20053;-67
2022/06/05 05:07:42;;;;;;;7.53;3.47;;;;;;;;;;5022059;28;20053;-70
2022/06/05 05:10:10;;;;;;;7.13;3.47;;;;;;;;;;5035450;28;20049;-67
2022/06/05 05:12:37;;;;;;;9.43;3.55;;;;;;;;;;5024767;28;20049;-63
2022/06/05 05:15:04;;;;;;;8.40;3.30;;;;;;;;;;5026604;28;20136;-65
2022/06/05 05:17:31;;;;;;;6.93;3.38;;;;;;;;;;5019843;28;20073;-66
2022/06/05 05:19:58;;;;;;;8.05;3.88;;;;;;;;;;5027585;28;20060;-69
2022/06/05 05:22:25;;;;;;;6.82;2.90;;;;;;;;;;5020530;28;20053;-65
2022/06/05 05:24:52;;;;;;;8.68;4.00;;;;;;;;;;5022762;28;20142;-68
2022/06/05 05:27:20;;;;;;;6.47;2.90;;;;;;;;;;5022893;28;20054;-67
2022/06/05 05:29:47;;;;;;;14.02;4.82;;;;;;;;;;5018718;28;20058;-66
2022/06/05 05:32:14;;;;;;;12.77;3.83;;;;;;;;;;5026913;28;20069;-67
2022/06/05 05:34:40;;;;;;;5.65;2.65;;;;;;;;;;5020247;28;20061;-70
2022/06/05 05:37:07;;;;;;;7.78;3.38;;;;;;;;;;5027268;28;20136;-64
2022/06/05 05:42:18;;;;;;;7.35;3.25;;;;;;;;;;5026117;28;20059;-67
2022/06/05 05:44:47;;;;;;;7.70;2.67;;;;;;;;;;5022129;28;20123;-66
2022/06/05 05:47:15;;;;;;;9.73;3.83;;;;;;;;;;5027342;28;20057;-67
2022/06/05 05:49:42;;;;;;;7.70;3.30;;;;;;;;;;5027206;28;20085;-69
2022/06/05 05:52:09;;;;;;;6.03;3.08;;;;;;;;;;4999180;28;20057;-67
2022/06/05 05:54:37;;;;;;;6.65;2.60;;;;;;;;;;5006761;28;20054;-64
2022/06/05 05:57:04;;;;;;;6.00;3.25;;;;;;;;;;5018130;28;20037;-70
2022/06/05 05:59:30;;;;;;;6.15;2.60;;;;;;;;;;5009492;28;20077;-67
2022/06/05 06:01:59;;;;;;;5.45;2.70;;;;;;;;;;5004578;28;20060;-66
2022/06/05 06:04:26;;;;;;;8.90;3.22;;;;;;;;;;5017788;28;20060;-67
2022/06/05 06:06:54;;;;;;;10.07;2.95;;;;;;;;;;5033890;28;20045;-68
2022/06/05 06:09:21;;;;;;;4.78;2.60;;;;;;;;;;5027486;28;20053;-67
2022/06/05 06:11:47;;;;;;;4.22;2.38;;;;;;;;;;5030211;28;20049;-68
2022/06/05 06:14:14;;;;;;;5.57;3.17;;;;;;;;;;5023731;28;20057;-71
2022/06/05 06:16:41;;;;;;;8.73;3.38;;;;;;;;;;5030118;28;20065;-68
2022/06/05 06:19:09;;;;;;;5.95;2.70;;;;;;;;;;5021183;28;20100;-64
2022/06/05 06:21:35;;;;;;;6.07;2.80;;;;;;;;;;5010485;28;20077;-65
2022/06/05 06:24:02;;;;;;;8.23;3.47;;;;;;;;;;5019431;28;20064;-64
2022/06/05 06:26:29;;;;;;;11.77;3.80;;;;;;;;;;5029550;28;20057;-71
2022/06/05 06:28:56;;;;;;;7.53;3.80;;;;;;;;;;5031172;28;20104;-68
2022/06/05 06:31:22;;;;;;;8.77;2.95;;;;;;;;;;5023283;28;20057;-65
2022/06/05 06:33:50;;;;;;;6.72;3.35;;;;;;;;;;5029412;28;20065;-65
2022/06/05 06:36:18;;;;;;;8.55;3.75;;;;;;;;;;5023846;28;20057;-65
2022/06/05 06:38:45;;;;;;;9.15;3.95;;;;;;;;;;5029562;28;20063;-66
2022/06/05 06:41:14;;;;;;;6.38;2.88;;;;;;;;;;5023209;28;20064;-65
2022/06/05 06:43:43;;;;;;;6.35;3.40;;;;;;;;;;5029763;28;20063;-64
2022/06/05 06:46:09;;;;;;;8.23;3.50;;;;;;;;;;5027362;28;20061;-64
2022/06/05 06:48:36;;;;;;;7.47;3.17;;;;;;;;;;5026403;28;20136;-64
2022/06/05 06:51:03;;;;;;;6.95;3.25;;;;;;;;;;5029682;28;20057;-65
2022/06/05 06:53:34;;;;;;;7.18;2.72;;;;;;;;;;5023566;28;20062;-65
2022/06/05 06:56:06;;;;;;;5.20;2.83;;;;;;;;;;5029590;28;20049;-65
2022/06/05 06:58:33;;;;;;;7.43;3.78;;;;;;;;;;5023820;28;20054;-65
2022/06/05 07:01:00;;;;;;;5.28;2.80;;;;;;;;;;5030222;28;20061;-71
2022/06/05 07:03:30;;;;;;;5.32;2.90;;;;;;;;;;5024055;28;20133;-65
2022/06/05 07:05:57;;;;;;;9.15;3.38;;;;;;;;;;5029733;28;20054;-70
2022/06/05 07:08:23;;;;;;;7.40;3.03;;;;;;;;;;5028075;28;20049;-68
2022/06/05 07:10:52;;;;;;;6.28;2.72;;;;;;;;;;5023366;28;20062;-65
2022/06/05 07:13:19;;;;;;;6.63;3.25;;;;;;;;;;5029463;28;20045;-70
2022/06/05 07:15:45;;;;;;;7.25;3.05;;;;;;;;;;5023523;28;20060;-66
2022/06/05 07:18:12;;;;;;;8.52;2.72;;;;;;;;;;5012956;28;20542;-67
2022/06/05 07:20:41;;;;;;;6.88;3.40;;;;;;;;;;5011452;28;20085;-67
2022/06/05 07:23:08;;;;;;;6.68;3.03;;;;;;;;;;5029272;28;20115;-69
2022/06/05 07:25:35;;;;;;;9.38;3.35;;;;;;;;;;5022892;28;20059;-64
2022/06/05 07:28:04;;;;;;;6.47;3.17;;;;;;;;;;5028575;28;20135;-65
2022/06/05 07:30:31;;;;;;;;;;;;;;;;;;5019479;28;20053;-65
2022/06/05 07:32:57;;;;;;;7.15;2.92;;;;;;;;;;5024305;28;19924;-66
2022/06/05 07:35:24;;;;;;;7.00;3.00;;;;;;;;;;5021682;28;20057;-64
2022/06/05 07:37:51;;;;;;;7.45;3.70;;;;;;;;;;5023327;28;20037;-66
2022/06/05 07:40:17;;;;;;;7.00;2.92;;;;;;;;;;5024304;28;20049;-68
2022/06/05 07:42:45;;;;;;;8.80;3.35;;;;;;;;;;5019497;28;20085;-64
2022/06/05 07:45:14;;;;;;;7.80;3.60;;;;;;;;;;5024417;28;20060;-65
2022/06/05 07:47:41;;;;;;;9.63;3.72;;;;;;;;;;5017131;28;20073;-67
2022/06/05 07:50:08;;;;;;;4.85;2.75;;;;;;;;;;5023090;28;20075;-68
2022/06/05 07:55:20;;;;;;;7.35;2.80;;;;;;;;;;5026031;28;20056;-64
2022/06/05 07:57:46;;;;;;;6.45;2.60;;;;;;;;;;5019061;28;20053;-66
2022/06/05 08:00:15;;;;;;;9.20;2.80;;;;;;;;;;5026108;28;20062;-64
2022/06/05 08:02:42;;;;;;;9.15;3.95;;;;;;;;;;5016841;28;20057;-68
2022/06/05 08:05:09;;;;;;;9.60;3.78;;;;;;;;;;5029414;28;20045;-69
2022/06/05 08:07:36;;;;;;;8.80;4.07;;;;;;;;;;5020132;28;20042;-65
2022/06/05 08:10:03;;;;;;;6.20;2.97;;;;;;;;;;5024638;28;20053;-65
2022/06/05 08:12:32;;;;;;;5.22;3.10;;;;;;;;;;5017856;28;20048;-68
2022/06/05 08:14:58;;;;;;;7.95;3.65;;;;;;;;;;5025209;28;20060;-64
2022/06/05 08:17:27;;;;;;;6.22;3.63;;;;;;;;;;5018569;28;20038;-64
2022/06/05 08:19:56;;;;;;;5.80;3.17;;;;;;;;;;5024666;28;20053;-68
2022/06/05 08:22:24;;;;;;;9.50;3.30;;;;;;;;;;5017995;28;20053;-67
2022/06/05 08:24:52;;;;;;;7.38;3.53;;;;;;;;;;5024139;28;20057;-68
2022/06/05 08:27:20;;;;;;;5.30;2.90;;;;;;;;;;5023686;28;20076;-67
2022/06/05 08:29:47;;;;;;;10.68;3.65;;;;;;;;;;5020271;28;20140;-65
2022/06/05 08:32:14;;;;;;;5.70;2.85;;;;;;;;;;5024857;28;20149;-65
2022/06/05 08:34:43;;;;;;;6.03;2.97;;;;;;;;;;5018398;28;20056;-69
2022/06/05 08:42:43;;;;;;;8.85;3.38;;;;;;;;;;5023673;28;20057;-65
2022/06/05 08:45:15;;;;;;;5.72;3.22;;;;;;;;;;5019089;28;20068;-68
2022/06/05 08:47:46;;;;;;;8.45;3.75;;;;;;;;;;5041787;28;20064;-66
2022/06/05 08:50:20;;;;;;;6.13;3.25;;;;;;;;;;5018065;28;20156;-67
2022/06/05 08:52:50;;;;;;;6.60;3.22;;;;;;;;;;5021925;28;20053;-66
2022/06/05 08:55:22;;;;;;;5.63;3.08;;;;;;;;;;5018488;28;20053;-66
2022/06/05 08:57:52;;;;;;;7.03;3.15;;;;;;;;;;5023331;28;20045;-68
2022/06/05 09:00:21;;;;;;;6.65;3.33;;;;;;;;;;5017841;28;20045;-66
2022/06/05 09:02:51;;;;;;;5.78;3.30;;;;;;;;;;5021475;28;20095;-65
2022/06/05 09:05:23;;;;;;;8.55;4.05;;;;;;;;;;5015273;28;20053;-67
2022/06/05 09:07:51;;;;;;;5.00;2.75;;;;;;;;;;5024577;28;20042;-64
2022/06/05 09:10:22;;;;;;;7.50;3.35;;;;;;;;;;5018451;28;20041;-66
2022/06/05 09:12:49;;;;;;;5.63;3.25;;;;;;;;;;5020500;28;20140;-65
2022/06/05 09:15:20;;;;;;;6.55;3.40;;;;;;;;;;5016633;28;20049;-65
2022/06/05 09:17:51;;;;;;;6.13;3.25;;;;;;;;;;5023971;28;20128;-66
2022/06/05 09:20:18;;;;;;;4.90;2.60;;;;;;;;;;5016706;28;20045;-65
2022/06/05 09:22:48;;;;;;;7.40;3.83;;;;;;;;;;5024544;28;20057;-66
2022/06/05 09:25:26;;;;;;;5.13;3.15;;;;;;;;;;5017670;28;20049;-68
2022/06/05 09:27:59;;;;;;;7.25;3.03;;;;;;;;;;5022835;28;20064;-65
2022/06/05 09:30:30;;;;;;;6.45;3.70;;;;;;;;;;5017660;28;20089;-68
2022/06/05 09:33:01;;;;;;;6.20;3.03;;;;;;;;;;5029459;28;20081;-69
2022/06/05 09:35:30;;;;;;;7.70;3.45;;;;;;;;;;5026083;28;20057;-65
2022/06/05 09:38:00;;;;;;;10.45;3.47;;;;;;;;;;5030979;28;20103;-68
2022/06/05 09:40:29;;;;;;;6.90;3.60;;;;;;;;;;5025496;28;20115;-67
2022/06/05 09:42:56;;;;;;;;;;;;;;;;;;5031456;28;20049;-65
2022/06/05 09:45:29;;;;;;;5.57;3.22;;;;;;;;;;5031948;28;20092;-63
2022/06/05 09:48:02;;;;;;;9.40;4.10;;;;;;;;;;5010504;28;20053;-62
2022/06/05 09:50:29;;;;;;;10.48;3.47;;;;;;;;;;5027332;28;20050;-64
2022/06/05 09:52:56;;;;;;;10.13;5.05;;;;;;;;;;5023942;28;20132;-63
2022/06/05 09:55:31;;;;;;;8.98;4.82;;;;;;;;;;5030678;28;20058;-63
2022/06/05 10:00:48;;;;;;;8.45;3.90;;;;;;;;;;5029806;28;20053;-63
2022/06/05 10:03:16;;;;;;;7.32;3.58;;;;;;;;;;5024594;28;20061;-63
2022/06/05 10:05:45;;;;;;;7.13;3.58;;;;;;;;;;5034586;28;20140;-63
2022/06/05 10:08:16;;;;;;;8.10;3.47;;;;;;;;;;5017997;28;20053;-63
2022/06/05 10:10:46;;;;;;;7.28;3.22;;;;;;;;;;5025884;28;20049;-63
2022/06/05 10:13:17;;;;;;;12.43;4.22;;;;;;;;;;5013684;28;20049;-63
2022/06/05 10:15:47;;;;;;;7.25;3.95;;;;;;;;;;5025334;28;20260;-63
2022/06/05 10:18:17;;;;;;;7.70;3.95;;;;;;;;;;5013814;28;20053;-63
2022/06/05 10:20:49;;;;;;;7.40;3.72;;;;;;;;;;5025278;28;20053;-63
2022/06/05 10:23:23;;;;;;;5.82;3.08;;;;;;;;;;5020341;28;20060;-63
2022/06/05 10:25:55;;;;;;;8.23;3.55;;;;;;;;;;5023779;28;20061;-63
2022/06/05 10:28:24;;;;;;;7.07;3.30;;;;;;;;;;5026277;28;20132;-63
2022/06/05 10:30:57;;;;;;;8.40;3.97;;;;;;;;;;5016227;28;20072;-63
2022/06/05 10:33:26;;;;;;;6.78;3.72;;;;;;;;;;5027594;28;20116;-63
2022/06/05 10:35:55;;;;;;;7.20;3.63;;;;;;;;;;5014488;28;20060;-63
2022/06/05 10:38:30;;;;;;;8.65;3.35;;;;;;;;;;5024204;28;20060;-63
2022/06/05 10:41:00;;;;;;;5.95;3.40;;;;;;;;;;5035367;28;20113;-63
2022/06/05 10:43:28;;;;;;;8.18;3.80;;;;;;;;;;5025100;28;20057;-63
2022/06/05 10:45:57;;;;;;;8.70;3.22;;;;;;;;;;5036254;28;20163;-63
2022/06/05 10:48:34;;;;;;;6.72;3.50;;;;;;;;;;5025341;28;20061;-63
2022/06/05 10:51:04;;;;;;;7.55;3.88;;;;;;;;;;5026298;28;20059;-63
2022/06/05 10:53:37;;;;;;;5.78;3.08;;;;;;;;;;5036142;28;20045;-63
2022/06/05 10:56:19;;;;;;;8.93;3.83;;;;;;;;;;5026002;28;20061;-63
2022/06/05 10:58:49;;;;;;;6.55;3.40;;;;;;;;;;5035706;28;20061;-63
2022/06/05 11:01:30;;;;;;;5.10;2.85;;;;;;;;;;5025569;28;20057;-62
2022/06/05 11:03:58;;;;;;;5.88;3.40;;;;;;;;;;5006900;28;20053;-65
2022/06/05 11:06:29;;;;;;;6.40;3.70;;;;;;;;;;5009072;28;20117;-67
2022/06/05 11:09:04;;;;;;;6.47;3.20;;;;;;;;;;5013887;28;20048;-71
2022/06/05 11:14:25;;;;;;;7.70;3.25;;;;;;;;;;5032718;28;20127;-73
2022/06/05 11:16:54;;;;;;;8.45;3.85;;;;;;;;;;5043860;28;20060;-72
2022/06/05 11:19:27;;;;;;;7.47;3.75;;;;;;;;;;5014422;28;20103;-73
2022/06/05 11:21:55;;;;;;;6.57;4.43;;;;;;;;;;5014040;28;20053;-73
2022/06/05 11:24:24;;;;;;;12.88;3.80;;;;;;;;;;5025275;28;20077;-68
2022/06/05 11:26:55;;;;;;;5.57;3.38;;;;;;;;;;5016051;28;20054;-70
2022/06/05 11:29:25;;;;;;;5.57;3.05;;;;;;;;;;5025677;28;20053;-70
2022/06/05 11:32:06;;;;;;;7.13;3.78;;;;;;;;;;5036240;28;20046;-67
2022/06/05 11:34:40;;;;;;;8.30;3.80;;;;;;;;;;5025363;28;20045;-70
2022/06/05 11:37:28;;;;;;;6.28;3.25;;;;;;;;;;5033900;28;20057;-72
2022/06/05 11:39:59;;;;;;;7.10;3.30;;;;;;;;;;5018552;28;20156;-71
2022/06/05 11:42:29;;;;;;;7.75;3.00;;;;;;;;;;5015439;28;20053;-72
2022/06/05 11:44:59;;;;;;;5.50;3.47;;;;;;;;;;5023820;28;20053;-67
2022/06/05 11:47:31;;;;;;;5.55;3.50;;;;;;;;;;5019486;28;20049;-66
2022/06/05 11:50:03;;;;;;;7.50;3.40;;;;;;;;;;5022475;28;20042;-71
2022/06/05 11:52:33;;;;;;;7.35;4.65;;;;;;;;;;5024796;28;20080;-68
2022/06/05 11:55:04;;;;;;;8.57;4.43;;;;;;;;;;5014236;28;20046;-69
2022/06/05 11:57:38;;;;;;;8.45;5.05;;;;;;;;;;5025074;28;20062;-68
2022/06/05 12:00:08;;;;;;;6.82;4.00;;;;;;;;;;5015027;28;20053;-67
2022/06/05 12:02:41;;;;;;;8.02;3.47;;;;;;;;;;5023889;28;20053;-64
2022/06/05 12:05:12;;;;;;;7.10;3.97;;;;;;;;;;5014646;28;20057;-67
2022/06/05 12:07:40;;;;;;;7.60;4.28;;;;;;;;;;5024635;28;20049;-66
2022/06/05 12:10:09;;;;;;;7.07;4.00;;;;;;;;;;5015911;28;20129;-71
2022/06/05 12:12:41;;;;;;;8.68;4.13;;;;;;;;;;5022837;28;20045;-66
2022/06/05 12:15:17;;;;;;;7.03;3.95;;;;;;;;;;5024803;28;20053;-70
2022/06/05 12:17:47;;;;;;;6.55;3.30;;;;;;;;;;5016303;28;20045;-66
2022/06/05 12:20:24;;;;;;;7.70;3.40;;;;;;;;;;5023337;28;20060;-69
2022/06/05 12:22:52;;;;;;;6.40;3.58;;;;;;;;;;5017329;28;20232;-70
2022/06/05 12:25:19;;;;;;;;;;;;;;;;;;5024892;28;20156;-72
2022/06/05 12:27:54;;;;;;;7.63;4.57;;;;;;;;;;5016233;28;19929;-70
2022/06/05 12:30:23;;;;;;;5.38;3.08;;;;;;;;;;5031700;28;20053;-72
2022/06/05 12:32:52;;;;;;;6.32;3.00;;;;;;;;;;5010665;28;20054;-63
2022/06/05 12:35:21;;;;;;;7.00;3.08;;;;;;;;;;5024249;28;20140;-62
2022/06/05 12:37:52;;;;;;;6.97;3.40;;;;;;;;;;5033954;28;20073;-71
2022/06/05 12:40:20;;;;;;;5.65;3.50;;;;;;;;;;5024430;28;20049;-65
2022/06/05 12:42:52;;;;;;;6.28;3.85;;;;;;;;;;5016312;28;20050;-66
2022/06/05 12:45:20;;;;;;;10.07;5.10;;;;;;;;;;5022175;28;20055;-65
2022/06/05 12:47:54;;;;;;;11.32;5.40;;;;;;;;;;5015531;28;20160;-62
2022/06/05 12:50:23;;;;;;;7.22;3.78;;;;;;;;;;5021971;28;20057;-64
2022/06/05 12:52:53;;;;;;;8.07;4.72;;;;;;;;;;5015580;28;20077;-64
2022/06/05 12:55:23;;;;;;;5.90;3.75;;;;;;;;;;5024196;28;20049;-66
2022/06/05 12:57:53;;;;;;;11.82;4.78;;;;;;;;;;5016060;28;20060;-65
2022/06/05 13:00:23;;;;;;;8.77;4.10;;;;;;;;;;5024393;28;20055;-63
2022/06/05 13:02:52;;;;;;;9.75;6.25;;;;;;;;;;5017985;28;20053;-61
2022/06/05 13:05:26;;;;;;;8.85;4.90;;;;;;;;;;5017593;28;20067;-64
2022/06/05 13:07:56;;;;;;;8.55;3.80;;;;;;;;;;5022769;28;20095;-66
2022/06/05 13:10:28;;;;;;;6.00;3.47;;;;;;;;;;5016866;28;20083;-66
2022/06/05 13:13:03;;;;;;;7.57;3.75;;;;;;;;;;5023592;28;20061;-64
2022/06/05 13:15:31;;;;;;;8.15;4.65;;;;;;;;;;5011316;28;20085;-67
2022/06/05 13:18:03;;;;;;;8.98;5.78;;;;;;;;;;5021710;28;20049;-68
2022/06/05 13:20:35;;;;;;;13.75;6.32;;;;;;;;;;5010629;28;20057;-67
2022/06/05 13:23:08;;;;;;;14.38;6.03;;;;;;;;;;5023294;28;20124;-64
2022/06/05 13:25:42;;;;;;;9.65;5.50;;;;;;;;;;5028789;28;20054;-63
2022/06/05 13:28:14;;;;;;;7.05;4.60;;;;;;;;;;5022548;28;20132;-64
2022/06/05 13:30:51;;;;;;;12.73;4.93;;;;;;;;;;5012426;28;20076;-62
2022/06/05 13:33:22;;;;;;;9.30;5.65;;;;;;;;;;5024164;28;20107;-66
2022/06/05 13:35:54;;;;;;;11.57;4.68;;;;;;;;;;5020248;28;20333;-63
2022/06/05 13:38:25;;;;;;;5.65;3.92;;;;;;;;;;5018093;28;20054;-67
2022/06/05 13:40:59;;;;;;;9.70;4.55;;;;;;;;;;5021625;28;20054;-62
2022/06/05 13:43:28;;;;;;;9.40;4.05;;;;;;;;;;5013873;28;20057;-62
2022/06/05 13:46:16;;;;;;;11.55;4.93;;;;;;;;;;5030316;28;20053;-66
2022/06/05 13:48:48;;;;;;;10.63;5.30;;;;;;;;;;5006033;28;20058;-65
2022/06/05 13:51:20;;;;;;;6.00;3.80;;;;;;;;;;5024549;28;20049;-65
2022/06/05 13:53:49;;;;;;;11.93;6.72;;;;;;;;;;5012792;28;20232;-61
2022/06/05 13:56:24;;;;;;;7.60;4.55;;;;;;;;;;5023890;28;20050;-62
2022/06/05 13:58:53;;;;;;;8.57;4.63;;;;;;;;;;5013038;28;20062;-64
2022/06/05 14:01:26;;;;;;;7.72;4.22;;;;;;;;;;5022130;28;20049;-66
2022/06/05 14:03:55;;;;;;;10.07;5.30;;;;;;;;;;5018532;28;20111;-62
2022/06/05 14:06:24;;;;;;;6.65;3.90;;;;;;;;;;5018328;28;20080;-63
2022/06/05 14:08:53;;;;;;;14.80;6.15;;;;;;;;;;5019258;28;20049;-62
2022/06/05 14:11:21;;;;;;;9.93;4.20;;;;;;;;;;5011762;28;20099;-64
2022/06/05 14:13:50;;;;;;;7.22;4.20;;;;;;;;;;5040420;28;20061;-62
2022/06/05 14:16:18;;;;;;;7.57;4.30;;;;;;;;;;5011277;28;20054;-63
2022/06/05 14:18:47;;;;;;;6.53;3.78;;;;;;;;;;5026084;28;20055;-61
2022/06/05 14:21:13;;;;;;;;;;;;;;;;;;5020734;28;20046;-62
2022/06/05 14:23:43;;;;;;;12.98;6.78;;;;;;;;;;5025284;28;20007;-61
2022/06/05 14:26:12;;;;;;;14.13;7.05;;;;;;;;;;5039107;28;20084;-61
2022/06/05 14:28:40;;;;;;;9.85;4.97;;;;;;;;;;5024479;28;20049;-61
2022/06/05 14:31:12;;;;;;;10.15;5.53;;;;;;;;;;5020783;28;20060;-61
2022/06/05 14:33:46;;;;;;;11.43;5.68;;;;;;;;;;5026827;28;20053;-62
2022/06/05 14:36:18;;;;;;;7.10;4.03;;;;;;;;;;5041907;28;20164;-61
2022/06/05 14:38:47;;;;;;;10.15;5.75;;;;;;;;;;5024100;28;20053;-61
2022/06/05 14:41:15;;;;;;;8.85;4.30;;;;;;;;;;5026971;28;20053;-64
2022/06/05 14:43:45;;;;;;;9.80;5.25;;;;;;;;;;5020636;28;20058;-61
2022/06/05 14:46:18;;;;;;;8.98;4.63;;;;;;;;;;5027767;28;20049;-63
2022/06/05 14:48:50;;;;;;;8.02;3.90;;;;;;;;;;5018064;28;20148;-64
2022/06/05 14:51:18;;;;;;;8.50;4.50;;;;;;;;;;5026467;28;20132;-63
2022/06/05 14:53:45;;;;;;;;;;;;;;;;;;5020847;28;20049;-63
2022/06/05 14:59:03;;;;;;;5.30;3.30;;;;;;;;;;5021328;28;20057;-64
2022/06/05 15:01:34;;;;;;;8.50;3.78;;;;;;;;;;5044131;28;20065;-62
2022/06/05 15:04:07;;;;;;;6.40;3.00;;;;;;;;;;5019180;28;20170;-61
2022/06/05 15:06:36;;;;;;;6.80;3.10;;;;;;;;;;5042709;28;20156;-61
2022/06/05 15:09:05;;;;;;;7.13;3.08;;;;;;;;;;5019243;28;20045;-61
2022/06/05 15:11:34;;;;;;;6.38;3.22;;;;;;;;;;5029078;28;20103;-61
2022/06/05 15:14:05;;;;;;;5.95;2.80;;;;;;;;;;5022580;28;20055;-61
2022/06/05 15:16:35;;;;;;;5.55;2.75;;;;;;;;;;5030633;28;20053;-61
2022/06/05 15:19:04;;;;;;;5.10;2.88;;;;;;;;;;5024385;28;20053;-61